createdAt,value
2022-08-25T00:00:58.482Z,21.05
2022-08-25T00:03:30.593Z,21.05
2022-08-25T00:06:11.576Z,21.06
2022-08-25T00:08:44.470Z,21.04
2022-08-25T00:11:19.608Z,21.04
2022-08-25T00:13:55.284Z,21.05
2022-08-25T00:16:30.143Z,21.05
2022-08-25T00:19:07.213Z,21.05
2022-08-25T00:21:41.199Z,21.06
2022-08-25T00:24:14.852Z,21.06
2022-08-25T00:26:50.122Z,21.07
2022-08-25T00:29:23.107Z,21.08
2022-08-25T00:31:56.570Z,21.07
2022-08-25T00:34:34.342Z,21.08
2022-08-25T00:37:09.306Z,21.10
2022-08-25T00:39:41.755Z,21.12
2022-08-25T00:42:15.054Z,21.15
2022-08-25T00:44:48.515Z,21.18
2022-08-25T00:47:21.513Z,21.21
2022-08-25T00:49:59.016Z,21.24
2022-08-25T00:52:33.853Z,21.26
2022-08-25T00:55:10.458Z,21.29
2022-08-25T00:57:45.744Z,21.32
2022-08-25T01:00:22.997Z,21.34
2022-08-25T01:02:58.060Z,21.38
2022-08-25T01:05:34.089Z,21.40
2022-08-25T01:08:08.844Z,21.41
2022-08-25T01:10:45.295Z,21.43
2022-08-25T01:13:21.968Z,21.46
2022-08-25T01:15:57.491Z,21.46
2022-08-25T01:18:30.587Z,21.46
2022-08-25T01:21:02.900Z,21.47
2022-08-25T01:23:34.962Z,21.49
2022-08-25T01:26:12.075Z,21.50
2022-08-25T01:29:01.375Z,21.50
2022-08-25T01:31:35.067Z,21.48
2022-08-25T01:34:08.080Z,21.47
2022-08-25T01:36:40.799Z,21.47
2022-08-25T01:39:13.413Z,21.47
2022-08-25T01:41:59.759Z,21.46
2022-08-25T01:44:32.113Z,21.47
2022-08-25T01:47:06.158Z,21.50
2022-08-25T01:49:38.790Z,21.52
2022-08-25T01:52:17.022Z,21.54
2022-08-25T01:54:49.090Z,21.57
2022-08-25T01:57:22.147Z,21.60
2022-08-25T01:59:54.229Z,21.59
2022-08-25T02:02:26.491Z,21.61
2022-08-25T02:04:58.859Z,21.63
2022-08-25T02:07:32.016Z,21.64
2022-08-25T02:10:05.026Z,21.66
2022-08-25T02:12:37.683Z,21.67
2022-08-25T02:15:11.832Z,21.67
2022-08-25T02:17:43.980Z,21.66
2022-08-25T02:20:16.087Z,21.67
2022-08-25T02:22:55.384Z,21.66
2022-08-25T02:25:30.003Z,21.66
2022-08-25T02:28:02.682Z,21.65
2022-08-25T02:30:36.169Z,21.65
2022-08-25T02:33:08.996Z,21.64
2022-08-25T02:35:41.609Z,21.63
2022-08-25T02:38:13.718Z,21.62
2022-08-25T02:40:45.902Z,21.61
2022-08-25T02:43:18.007Z,21.61
2022-08-25T02:45:50.189Z,21.60
2022-08-25T02:48:23.493Z,21.60
2022-08-25T02:50:55.843Z,21.61
2022-08-25T02:53:28.655Z,21.62
2022-08-25T02:56:01.253Z,21.65
2022-08-25T02:58:33.397Z,21.65
2022-08-25T03:01:05.783Z,21.65
2022-08-25T03:03:39.527Z,21.64
2022-08-25T03:06:13.531Z,21.66
2022-08-25T03:08:46.453Z,21.68
2022-08-25T03:11:19.565Z,21.71
2022-08-25T03:13:52.175Z,21.73
2022-08-25T03:16:27.627Z,21.74
2022-08-25T03:19:00.774Z,21.75
2022-08-25T03:21:33.527Z,21.75
2022-08-25T03:24:06.418Z,21.75
2022-08-25T03:26:56.760Z,21.77
2022-08-25T03:29:32.750Z,21.76
2022-08-25T03:32:05.401Z,21.74
2022-08-25T03:34:37.622Z,21.73
2022-08-25T03:37:10.018Z,21.73
2022-08-25T03:39:42.727Z,21.73
2022-08-25T03:42:14.777Z,21.73
2022-08-25T03:44:46.816Z,21.74
2022-08-25T03:47:19.099Z,21.75
2022-08-25T03:49:51.780Z,21.76
2022-08-25T03:52:24.006Z,21.76
2022-08-25T03:54:56.252Z,21.76
2022-08-25T03:57:28.345Z,21.76
2022-08-25T04:00:00.432Z,21.76
2022-08-25T04:02:33.846Z,21.78
2022-08-25T04:05:06.878Z,21.79
2022-08-25T04:07:39.459Z,21.81
2022-08-25T04:10:12.768Z,21.83
2022-08-25T04:12:45.429Z,21.86
2022-08-25T04:15:17.522Z,21.88
2022-08-25T04:17:51.832Z,21.90
2022-08-25T04:20:24.109Z,21.91
2022-08-25T04:23:00.633Z,21.92
2022-08-25T04:25:33.360Z,21.96
2022-08-25T04:28:06.001Z,22.00
2022-08-25T04:30:42.773Z,22.06
2022-08-25T04:33:14.885Z,22.09
2022-08-25T04:35:51.326Z,22.13
2022-08-25T04:38:24.161Z,22.15
2022-08-25T04:41:00.172Z,22.18
2022-08-25T04:43:33.261Z,22.20
2022-08-25T04:46:09.451Z,22.23
2022-08-25T04:48:42.376Z,22.29
2022-08-25T04:51:16.284Z,22.36
2022-08-25T04:53:48.565Z,22.44
2022-08-25T04:56:23.106Z,22.52
2022-08-25T04:58:56.080Z,22.59
2022-08-25T05:01:28.927Z,22.67
2022-08-25T05:04:03.566Z,22.79
2022-08-25T05:06:36.059Z,22.88
2022-08-25T05:09:08.684Z,23.00
2022-08-25T05:11:42.193Z,23.12
2022-08-25T05:14:18.225Z,23.27
2022-08-25T05:16:51.987Z,23.44
2022-08-25T05:19:24.744Z,23.74
2022-08-25T05:21:57.924Z,24.13
2022-08-25T05:24:30.934Z,24.42
2022-08-25T05:27:04.150Z,24.61
2022-08-25T05:29:36.209Z,24.81
2022-08-25T05:32:10.215Z,25.30
2022-08-25T05:34:42.409Z,25.88
2022-08-25T05:37:14.546Z,26.48
2022-08-25T05:39:46.631Z,27.18
2022-08-25T05:42:18.624Z,27.94
2022-08-25T05:44:51.136Z,28.71
2022-08-25T05:47:23.154Z,29.43
2022-08-25T05:49:55.280Z,29.95
2022-08-25T05:52:29.865Z,30.56
2022-08-25T05:55:01.959Z,31.23
2022-08-25T05:57:34.664Z,31.97
2022-08-25T06:00:10.423Z,32.65
2022-08-25T06:02:48.644Z,33.15
2022-08-25T06:05:23.175Z,33.53
2022-08-25T06:07:55.540Z,33.98
2022-08-25T06:10:28.744Z,34.50
2022-08-25T06:13:01.006Z,34.99
2022-08-25T06:15:34.055Z,35.42
2022-08-25T06:18:07.425Z,35.81
2022-08-25T06:20:39.451Z,36.11
2022-08-25T06:23:13.111Z,36.25
2022-08-25T06:25:52.500Z,36.42
2022-08-25T06:28:24.567Z,36.47
2022-08-25T06:31:01.795Z,36.34
2022-08-25T06:33:33.979Z,36.17
2022-08-25T06:36:07.701Z,35.68
2022-08-25T06:38:39.899Z,35.09
2022-08-25T06:41:14.083Z,34.67
2022-08-25T06:43:50.801Z,34.49
2022-08-25T06:46:36.318Z,34.48
2022-08-25T06:49:09.722Z,34.36
2022-08-25T06:51:42.492Z,34.11
2022-08-25T06:54:15.172Z,33.81
2022-08-25T06:56:49.634Z,33.51
2022-08-25T06:59:22.570Z,33.23
2022-08-25T07:01:58.300Z,32.96
2022-08-25T07:04:31.917Z,32.69
2022-08-25T07:07:04.309Z,32.44
2022-08-25T07:09:39.181Z,32.17
2022-08-25T07:12:11.846Z,31.96
2022-08-25T07:14:58.189Z,31.79
2022-08-25T07:17:36.109Z,31.63
2022-08-25T07:20:09.790Z,31.59
2022-08-25T07:22:45.914Z,31.64
2022-08-25T07:25:18.115Z,31.69
2022-08-25T07:27:50.151Z,31.82
2022-08-25T07:30:22.370Z,32.01
2022-08-25T07:32:55.368Z,32.16
2022-08-25T07:35:27.782Z,32.38
2022-08-25T07:38:13.052Z,32.68
2022-08-25T07:40:56.977Z,32.96
2022-08-25T07:43:29.386Z,33.14
2022-08-25T07:46:01.781Z,33.25
2022-08-25T07:48:33.997Z,33.37
2022-08-25T07:51:12.326Z,33.49
2022-08-25T07:53:44.879Z,33.65
2022-08-25T07:56:18.970Z,33.88
2022-08-25T07:58:51.225Z,34.06
2022-08-25T08:01:25.655Z,34.40
2022-08-25T08:04:01.614Z,34.74
2022-08-25T08:06:36.019Z,35.20
2022-08-25T08:09:08.307Z,35.79
2022-08-25T08:11:53.956Z,36.58
2022-08-25T08:14:26.642Z,37.58
2022-08-25T08:16:58.771Z,38.36
2022-08-25T08:19:30.991Z,39.09
2022-08-25T08:22:03.628Z,39.76
2022-08-25T08:24:44.302Z,40.30
2022-08-25T08:27:26.947Z,40.91
2022-08-25T08:29:59.152Z,41.34
2022-08-25T08:32:52.998Z,41.72
2022-08-25T08:35:23.332Z,42.14
2022-08-25T08:37:55.382Z,42.38
2022-08-25T08:40:28.174Z,42.58
2022-08-25T08:43:13.334Z,42.75
2022-08-25T08:45:53.757Z,43.00
2022-08-25T08:49:01.661Z,43.16
2022-08-25T08:51:40.463Z,43.10
2022-08-25T08:54:18.774Z,43.13
2022-08-25T08:56:57.212Z,42.89
2022-08-25T08:59:35.206Z,42.61
2022-08-25T09:02:13.951Z,42.46
2022-08-25T09:04:50.052Z,42.44
2022-08-25T09:07:28.936Z,42.31
2022-08-25T09:10:02.329Z,42.13
2022-08-25T09:12:41.044Z,42.11
2022-08-25T09:15:50.253Z,42.31
2022-08-25T09:18:30.926Z,42.63
2022-08-25T09:21:14.805Z,42.83
2022-08-25T09:24:04.876Z,42.91
2022-08-25T09:26:41.190Z,43.06
2022-08-25T09:29:17.125Z,43.19
2022-08-25T09:31:51.044Z,43.27
2022-08-25T09:34:29.829Z,43.40
2022-08-25T09:37:02.408Z,43.54
2022-08-25T09:39:35.019Z,43.58
2022-08-25T09:42:07.733Z,43.63
2022-08-25T09:44:44.517Z,43.62
2022-08-25T09:47:25.305Z,43.63
2022-08-25T09:50:04.444Z,43.64
2022-08-25T09:52:41.394Z,43.75
2022-08-25T09:55:35.600Z,43.84
2022-08-25T09:58:19.332Z,43.89
2022-08-25T10:01:14.449Z,43.95
2022-08-25T10:04:05.460Z,43.98
2022-08-25T10:06:48.577Z,43.86
2022-08-25T10:09:33.214Z,43.76
2022-08-25T10:12:21.232Z,43.72
2022-08-25T10:14:59.799Z,43.55
2022-08-25T10:17:34.234Z,43.48
2022-08-25T10:20:21.080Z,43.51
2022-08-25T10:23:09.956Z,43.58
2022-08-25T10:25:57.904Z,43.64
2022-08-25T10:28:39.943Z,43.63
2022-08-25T10:31:22.011Z,43.57
2022-08-25T10:34:08.064Z,43.56
2022-08-25T10:36:50.981Z,43.29
2022-08-25T10:39:40.631Z,42.82
2022-08-25T10:42:30.263Z,42.58
2022-08-25T10:45:34.700Z,42.46
2022-08-25T10:48:19.737Z,41.90
2022-08-25T10:51:01.044Z,41.40
2022-08-25T10:53:47.359Z,41.19
2022-08-25T10:56:25.918Z,40.87
2022-08-25T10:59:27.520Z,40.81
2022-08-25T11:02:29.495Z,40.71
2022-08-25T11:05:07.945Z,40.52
2022-08-25T11:07:44.514Z,40.13
2022-08-25T11:10:20.328Z,39.54
2022-08-25T11:12:55.638Z,39.17
2022-08-25T11:15:31.115Z,39.05
2022-08-25T11:18:14.667Z,38.88
2022-08-25T11:20:53.151Z,38.52
2022-08-25T11:23:29.757Z,38.29
2022-08-25T11:26:11.214Z,38.28
2022-08-25T11:28:55.384Z,38.16
2022-08-25T11:31:30.081Z,37.76
2022-08-25T11:34:02.433Z,37.77
2022-08-25T11:36:37.867Z,37.83
2022-08-25T11:39:23.089Z,37.76
2022-08-25T11:42:09.813Z,37.70
2022-08-25T11:44:53.801Z,37.33
2022-08-25T11:47:51.915Z,37.00
2022-08-25T11:50:33.288Z,36.50
2022-08-25T11:53:26.712Z,36.20
2022-08-25T11:56:04.623Z,36.08
2022-08-25T11:58:52.114Z,36.03
2022-08-25T12:02:13.148Z,36.10
2022-08-25T12:04:46.903Z,36.26
2022-08-25T12:07:33.565Z,36.10
2022-08-25T12:10:24.246Z,35.86
2022-08-25T12:13:48.473Z,35.86
2022-08-25T12:16:44.683Z,35.83
2022-08-25T12:19:49.728Z,35.73
2022-08-25T12:22:55.445Z,35.72
2022-08-25T12:25:43.585Z,35.64
2022-08-25T12:28:40.543Z,35.63
2022-08-25T12:31:24.550Z,35.69
2022-08-25T12:34:12.494Z,35.81
2022-08-25T12:36:59.455Z,35.79
2022-08-25T12:39:34.220Z,35.58
2022-08-25T12:42:26.139Z,35.29
2022-08-25T12:45:38.854Z,35.15
2022-08-25T12:48:43.991Z,35.08
2022-08-25T12:51:21.218Z,34.99
2022-08-25T12:53:57.183Z,35.00
2022-08-25T12:56:39.117Z,35.01
2022-08-25T12:59:18.616Z,35.06
2022-08-25T13:02:09.349Z,35.05
2022-08-25T13:05:14.474Z,35.11
2022-08-25T13:08:17.159Z,35.10
2022-08-25T13:10:55.045Z,35.18
2022-08-25T13:13:47.907Z,35.24
2022-08-25T13:16:27.072Z,35.37
2022-08-25T13:19:05.693Z,35.43
2022-08-25T13:21:41.845Z,35.40
2022-08-25T13:24:20.723Z,35.38
2022-08-25T13:26:56.851Z,35.39
2022-08-25T13:29:28.446Z,35.39
2022-08-25T13:32:12.693Z,35.44
2022-08-25T13:34:46.873Z,35.49
2022-08-25T13:37:29.578Z,35.52
2022-08-25T13:40:17.684Z,35.38
2022-08-25T13:42:55.912Z,35.33
2022-08-25T13:45:32.035Z,35.19
2022-08-25T13:48:08.013Z,35.14
2022-08-25T13:51:07.177Z,34.99
2022-08-25T13:53:41.708Z,34.86
2022-08-25T13:56:24.289Z,34.81
2022-08-25T13:59:01.119Z,34.77
2022-08-25T14:01:49.651Z,34.65
2022-08-25T14:04:31.555Z,34.54
2022-08-25T14:07:34.066Z,34.52
2022-08-25T14:10:10.089Z,34.47
2022-08-25T14:12:46.481Z,34.52
2022-08-25T14:15:35.162Z,34.44
2022-08-25T14:18:14.820Z,34.36
2022-08-25T14:20:53.764Z,34.38
2022-08-25T14:23:29.876Z,34.42
2022-08-25T14:26:04.551Z,34.38
2022-08-25T14:28:39.568Z,34.33
2022-08-25T14:31:16.642Z,34.25
2022-08-25T14:33:53.781Z,34.04
2022-08-25T14:36:26.415Z,33.86
2022-08-25T14:38:59.408Z,33.75
2022-08-25T14:41:35.008Z,33.67
2022-08-25T14:44:09.132Z,33.64
2022-08-25T14:46:46.941Z,33.51
2022-08-25T14:49:24.969Z,33.40
2022-08-25T14:51:57.731Z,33.32
2022-08-25T14:54:32.734Z,33.15
2022-08-25T14:57:08.441Z,33.04
2022-08-25T14:59:43.321Z,32.97
2022-08-25T15:02:20.008Z,32.93
2022-08-25T15:04:55.642Z,32.87
2022-08-25T15:07:46.139Z,32.79
2022-08-25T15:10:30.419Z,32.74
2022-08-25T15:13:02.455Z,32.76
2022-08-25T15:15:52.465Z,32.74
2022-08-25T15:18:25.950Z,32.73
2022-08-25T15:20:58.412Z,32.71
2022-08-25T15:23:30.568Z,32.66
2022-08-25T15:26:02.913Z,32.57
2022-08-25T15:28:38.682Z,32.48
2022-08-25T15:31:10.866Z,32.43
2022-08-25T15:33:42.997Z,32.41
2022-08-25T15:36:20.721Z,32.37
2022-08-25T15:38:53.100Z,32.33
2022-08-25T15:41:27.919Z,32.29
2022-08-25T15:44:00.843Z,32.26
2022-08-25T15:46:33.872Z,32.21
2022-08-25T15:49:07.832Z,32.11
2022-08-25T15:51:42.119Z,32.05
2022-08-25T15:54:14.508Z,32.00
2022-08-25T15:56:47.398Z,31.96
2022-08-25T15:59:21.633Z,31.93
2022-08-25T16:01:54.840Z,31.92
2022-08-25T16:04:29.323Z,31.90
2022-08-25T16:07:02.774Z,31.88
2022-08-25T16:09:36.593Z,31.88
2022-08-25T16:12:10.043Z,31.87
2022-08-25T16:14:43.150Z,31.79
2022-08-25T16:17:15.431Z,31.73
2022-08-25T16:19:48.383Z,31.67
2022-08-25T16:22:20.590Z,31.59
2022-08-25T16:24:52.719Z,31.50
2022-08-25T16:27:25.371Z,31.46
2022-08-25T16:29:57.561Z,31.44
2022-08-25T16:32:29.827Z,31.39
2022-08-25T16:35:01.932Z,31.32
2022-08-25T16:37:35.508Z,31.27
2022-08-25T16:40:10.408Z,31.20
2022-08-25T16:42:42.758Z,31.14
2022-08-25T16:45:15.137Z,31.09
2022-08-25T16:47:47.577Z,31.05
2022-08-25T16:50:20.428Z,30.99
2022-08-25T16:53:09.921Z,30.94
2022-08-25T16:55:42.056Z,30.93
2022-08-25T16:58:14.159Z,30.90
2022-08-25T17:00:46.460Z,30.89
2022-08-25T17:03:20.300Z,30.84
2022-08-25T17:05:53.333Z,30.83
2022-08-25T17:08:32.248Z,30.81
2022-08-25T17:11:10.703Z,30.77
2022-08-25T17:13:45.416Z,30.74
2022-08-25T17:16:19.195Z,30.67
2022-08-25T17:18:52.554Z,30.64
2022-08-25T17:21:28.016Z,30.61
2022-08-25T17:24:00.833Z,30.58
2022-08-25T17:26:41.183Z,30.55
2022-08-25T17:29:17.350Z,30.49
2022-08-25T17:31:51.264Z,30.41
2022-08-25T17:34:23.873Z,30.36
2022-08-25T17:36:56.463Z,30.31
2022-08-25T17:39:29.982Z,30.27
2022-08-25T17:42:02.222Z,30.23
2022-08-25T17:44:34.314Z,30.20
2022-08-25T17:47:10.133Z,30.18
2022-08-25T17:49:42.978Z,30.21
2022-08-25T17:52:17.388Z,30.28
2022-08-25T17:54:49.479Z,30.39
2022-08-25T17:57:24.567Z,30.50
2022-08-25T17:59:57.338Z,30.55
2022-08-25T18:02:30.458Z,30.59
2022-08-25T18:05:04.972Z,30.65
2022-08-25T18:07:38.086Z,30.71
2022-08-25T18:10:12.230Z,30.74
2022-08-25T18:12:44.761Z,30.78
2022-08-25T18:15:17.782Z,30.80
2022-08-25T18:17:50.114Z,30.79
2022-08-25T18:20:22.204Z,30.72
2022-08-25T18:22:57.697Z,30.63
2022-08-25T18:25:29.803Z,30.52
2022-08-25T18:28:02.640Z,30.37
2022-08-25T18:30:34.813Z,30.23
2022-08-25T18:33:07.070Z,30.10
2022-08-25T18:35:39.117Z,29.96
2022-08-25T18:38:28.752Z,29.84
2022-08-25T18:41:06.441Z,29.70
2022-08-25T18:43:39.168Z,29.58
2022-08-25T18:46:12.467Z,29.47
2022-08-25T18:48:45.735Z,29.37
2022-08-25T18:51:18.301Z,29.26
2022-08-25T18:54:00.911Z,29.16
2022-08-25T18:56:34.798Z,29.06
2022-08-25T18:59:09.018Z,28.98
2022-08-25T19:01:41.731Z,28.89
2022-08-25T19:04:15.331Z,28.81
2022-08-25T19:06:47.579Z,28.76
2022-08-25T19:09:23.905Z,28.73
2022-08-25T19:11:56.057Z,28.69
2022-08-25T19:14:29.243Z,28.63
2022-08-25T19:17:01.814Z,28.55
2022-08-25T19:19:34.008Z,28.50
2022-08-25T19:22:08.520Z,28.45
2022-08-25T19:24:49.013Z,28.38
2022-08-25T19:27:21.377Z,28.32
2022-08-25T19:29:53.756Z,28.27
2022-08-25T19:32:25.859Z,28.25
2022-08-25T19:34:58.321Z,28.23
2022-08-25T19:37:31.421Z,28.20
2022-08-25T19:40:06.392Z,28.17
2022-08-25T19:42:38.913Z,28.15
2022-08-25T19:45:15.396Z,28.12
2022-08-25T19:47:47.529Z,28.08
2022-08-25T19:50:21.341Z,28.05
2022-08-25T19:52:54.142Z,28.04
2022-08-25T19:55:26.684Z,28.02
2022-08-25T19:57:59.296Z,28.00
2022-08-25T20:00:35.712Z,27.96
2022-08-25T20:03:10.184Z,27.94
2022-08-25T20:05:42.507Z,27.91
2022-08-25T20:08:14.718Z,27.89
2022-08-25T20:10:47.680Z,27.85
2022-08-25T20:13:19.860Z,27.82
2022-08-25T20:15:52.154Z,27.78
2022-08-25T20:18:30.059Z,27.74
2022-08-25T20:21:02.575Z,27.69
2022-08-25T20:23:52.943Z,27.62
2022-08-25T20:26:26.814Z,27.57
2022-08-25T20:28:59.750Z,27.52
2022-08-25T20:31:32.358Z,27.47
2022-08-25T20:34:05.006Z,27.42
2022-08-25T20:36:39.986Z,27.38
2022-08-25T20:39:22.991Z,27.32
2022-08-25T20:41:55.052Z,27.29
2022-08-25T20:44:33.667Z,27.26
2022-08-25T20:47:10.363Z,27.24
2022-08-25T20:49:43.969Z,27.21
2022-08-25T20:52:16.752Z,27.19
2022-08-25T20:54:51.233Z,27.18
2022-08-25T20:57:26.241Z,27.16
2022-08-25T21:00:01.190Z,27.14
2022-08-25T21:02:33.516Z,27.11
2022-08-25T21:05:08.885Z,27.10
2022-08-25T21:07:41.617Z,27.09
2022-08-25T21:10:14.730Z,27.08
2022-08-25T21:12:49.146Z,27.07
2022-08-25T21:15:25.581Z,27.07
2022-08-25T21:17:58.223Z,27.05
2022-08-25T21:20:31.850Z,27.01
2022-08-25T21:23:04.020Z,26.97
2022-08-25T21:25:43.328Z,26.94
2022-08-25T21:28:15.653Z,26.88
2022-08-25T21:30:48.192Z,26.87
2022-08-25T21:33:20.423Z,26.86
2022-08-25T21:35:58.316Z,26.85
2022-08-25T21:38:30.566Z,26.84
2022-08-25T21:41:08.553Z,26.81
2022-08-25T21:43:41.349Z,26.78
2022-08-25T21:46:19.224Z,26.76
2022-08-25T21:48:51.917Z,26.74
2022-08-25T21:51:26.644Z,26.71
2022-08-25T21:54:10.206Z,26.67
2022-08-25T21:56:45.237Z,26.63
2022-08-25T21:59:20.144Z,26.59
2022-08-25T22:01:56.305Z,26.58
2022-08-25T22:04:29.721Z,26.56
2022-08-25T22:07:02.899Z,26.56
2022-08-25T22:09:35.933Z,26.56
2022-08-25T22:12:09.778Z,26.57
2022-08-25T22:14:42.273Z,26.58
2022-08-25T22:17:16.809Z,26.57
2022-08-25T22:19:49.420Z,26.57
2022-08-25T22:22:26.674Z,26.56
2022-08-25T22:24:58.778Z,26.55
2022-08-25T22:27:31.845Z,26.54
2022-08-25T22:30:04.002Z,26.52
2022-08-25T22:32:37.563Z,26.48
2022-08-25T22:35:11.562Z,26.45
2022-08-25T22:37:45.106Z,26.42
2022-08-25T22:40:17.691Z,26.40
2022-08-25T22:42:50.621Z,26.36
2022-08-25T22:45:22.907Z,26.33
2022-08-25T22:47:56.026Z,26.30
2022-08-25T22:50:28.657Z,26.28
2022-08-25T22:53:00.637Z,26.26
2022-08-25T22:55:32.902Z,26.23
2022-08-25T22:58:05.239Z,26.21
2022-08-25T23:00:39.402Z,26.18
2022-08-25T23:03:11.609Z,26.15
2022-08-25T23:05:43.726Z,26.12
2022-08-25T23:08:15.986Z,26.09
2022-08-25T23:11:09.973Z,26.05
2022-08-25T23:13:42.853Z,26.02
2022-08-25T23:16:15.471Z,25.99
2022-08-25T23:18:47.822Z,25.95
2022-08-25T23:21:41.019Z,25.93
2022-08-25T23:24:29.090Z,25.91
2022-08-25T23:27:04.791Z,25.89
2022-08-25T23:29:40.077Z,25.89
2022-08-25T23:32:14.492Z,25.89
2022-08-25T23:34:47.724Z,25.88
2022-08-25T23:37:20.745Z,25.87
2022-08-25T23:39:52.962Z,25.85
2022-08-25T23:42:25.013Z,25.83
2022-08-25T23:44:57.328Z,25.80
2022-08-25T23:47:30.130Z,25.77
2022-08-25T23:50:03.214Z,25.75
2022-08-25T23:52:36.303Z,25.74
2022-08-25T23:55:09.607Z,25.73
2022-08-25T23:57:42.400Z,25.71
